Bei Facebook empfehlenBei Twitter postenGoogle plusPinterest

Das Wetter im Erzgebirge am 04.10.2015

Wetter und Klima am 04.10.2015 Holzhau im Erzgebirge (630m ü.NN)
Letzte gemessene Temperatur und Uhrzeit der Messung23:45:00 Uhr9.70 °C
Temperatur (Maximum / Höchstwert) und Uhrzeit der Messung14:00:00 Uhr19.70 °C
Temperatur (Minimum / Tiefstwert) und Uhrzeit der Messung07:15:004.40 °C
Errechneter Absolutwert der Temperaturschwankungen zwischen Tmin und Tmax des Tages15.30 K
Errechnete Tagesmitteltemperatur11.45104 °C
Gesamt - Niederschlag des Tages (in flüssiger Form)0.00 Liter / m²
Luftdruck (Maximum / Höchstwert) und Zeitpunkt der Messung16:00:00 Uhr1014.90 hPa
Luftdruck (Minimum / Tiefstwert) und Zeitpunkt der Messung00:30:00 Uhr1011.90 hPa
Errechneter Absolutwert der Luftdruckschwankungen des Tages3.00 hPa
Höchste gemessene Windgeschwindigkeit und Uhrzeit der Messung12:30:00 Uhr10.44 km/h
Errechnete Windhäufigkeit in Relation zu den Messwerten des Tages3.12500 %
Niedrigste Windkühle (Windchill) und Zeitpunkt der Messung06:15:00 Uhr4.20 °C
Taupunkt (Maximum / Höchstwert) und Uhrzeit der Messung11:15:00 Uhr15.90 °C
Taupunkt (Minimum / Tiefstwert) und Uhrzeit der Messung07:15:003.20 °C
Anzahl der automatisch eingelesenen Messwerte 96

Detaillierte Wetter- und Klima- Messwerte für den 04.10.2015 in Holzhau im Erzgebirge (630m ü.NN)
ZeitTemperaturLuftdruckRel. LuftfeuchteWindWindrichtungWindchillTaupunktNiederschlag l/m²
23:45:009.70 °C1014.20 hPa89.00 %8.00 °C 
23:30:009.80 °C1014.20 hPa89.00 %8.10 °C 
23:15:009.80 °C1014.10 hPa89.00 %8.10 °C 
23:00:009.90 °C1014.10 hPa88.00 %8.00 °C 
22:45:009.90 °C1014.30 hPa88.00 %8.00 °C 
22:30:0010.10 °C1014.20 hPa88.00 %8.20 °C 
22:15:0010.20 °C1014.30 hPa88.00 %8.30 °C 
22:00:0010.10 °C1014.30 hPa87.00 %8.00 °C 
21:45:0010.20 °C1014.20 hPa86.00 %8.00 °C 
21:30:0010.30 °C1014.10 hPa86.00 %8.10 °C 
21:15:0010.40 °C1014.20 hPa85.00 %8.00 °C 
21:00:0010.80 °C1014.10 hPa85.00 %8.40 °C 
20:45:0010.90 °C1014.10 hPa84.00 %8.30 °C 
20:30:0011.10 °C1014.20 hPa84.00 %8.50 °C 
20:15:0011.30 °C1014.40 hPa83.00 %8.50 °C 
20:00:0011.50 °C1014.30 hPa82.00 %8.50 °C 
19:45:0011.80 °C1014.30 hPa82.00 %8.80 °C 
19:30:0012.10 °C1014.30 hPa80.00 %8.80 °C 
19:15:0012.40 °C1014.30 hPa80.00 %9.10 °C 
19:00:0012.90 °C1014.30 hPa79.00 %9.40 °C 
18:45:0013.50 °C1014.20 hPa78.00 %9.70 °C 
18:30:0014.00 °C1014.20 hPa76.00 %9.80 °C 
18:15:0014.50 °C1014.40 hPa75.00 %10.10 °C 
18:00:0014.90 °C1014.40 hPa74.00 %10.30 °C 
17:45:0015.20 °C1014.40 hPa73.00 %10.40 °C 
17:30:0015.60 °C1014.40 hPa72.00 %10.60 °C 
17:15:0015.90 °C1014.50 hPa71.00 %10.70 °C 
17:00:0016.20 °C1014.80 hPa71.00 %10.90 °C 
16:45:0016.30 °C1014.70 hPa70.00 %10.80 °C 
16:30:0016.50 °C1014.70 hPa69.00 %10.80 °C 
16:15:0016.80 °C1014.70 hPa68.00 %10.90 °C 
16:00:0017.00 °C1014.90 hPa68.00 %11.10 °C 
15:45:0017.50 °C1014.70 hPa67.00 %11.30 °C 
15:30:0018.10 °C1014.90 hPa66.00 %11.70 °C 
15:15:0018.70 °C1014.80 hPa65.00 %12.00 °C 
15:00:0018.90 °C1014.80 hPa65.00 %12.20 °C 
14:45:0019.00 °C1014.70 hPa63.00 %11.80 °C 
14:30:0019.60 °C1014.60 hPa63.00 %12.40 °C 
14:15:0019.60 °C1014.50 hPa63.00 %12.40 °C 
14:00:0019.70 °C1014.40 hPa63.00 %12.50 °C 
13:45:0019.30 °C1014.80 hPa65.00 %3.24 km/hWSW19.30 °C12.60 °C 
13:30:0018.60 °C1014.70 hPa65.00 %11.90 °C 
13:15:0019.30 °C1014.60 hPa63.00 %12.10 °C 
13:00:0019.40 °C1014.60 hPa66.00 %12.90 °C 
12:45:0019.50 °C1014.50 hPa66.00 %13.00 °C 
12:30:0019.40 °C1014.50 hPa68.00 %10.44 km/hSW19.80 °C13.30 °C 
12:15:0019.10 °C1014.30 hPa70.00 %13.50 °C 
12:00:0018.50 °C1014.20 hPa72.00 %13.40 °C 
11:45:0018.90 °C1014.00 hPa76.00 %14.60 °C 
11:30:0018.90 °C1014.00 hPa82.00 %15.80 °C 
11:15:0018.10 °C1013.60 hPa87.00 %15.90 °C 
11:00:0016.60 °C1013.40 hPa91.00 %15.10 °C 
10:45:0015.30 °C1013.40 hPa93.00 %14.20 °C 
10:30:0014.20 °C1013.40 hPa95.00 %13.40 °C 
10:15:0012.50 °C1013.30 hPa95.00 %11.70 °C 
10:00:0011.00 °C1013.20 hPa94.00 %10.10 °C 
09:45:009.60 °C1013.30 hPa94.00 %8.70 °C 
09:30:008.90 °C1013.40 hPa94.00 %8.00 °C 
09:15:007.90 °C1013.30 hPa94.00 %7.00 °C 
09:00:006.80 °C1013.40 hPa94.00 %5.90 °C 
08:45:005.60 °C1013.50 hPa93.00 %4.60 °C 
08:30:005.00 °C1013.20 hPa93.00 %4.00 °C 
08:15:004.90 °C1012.90 hPa93.00 %3.90 °C 
08:00:004.60 °C1012.80 hPa93.00 %3.60 °C 
07:45:004.50 °C1012.80 hPa92.00 %3.30 °C 
07:30:004.70 °C1012.70 hPa92.00 %3.50 °C 
07:15:004.40 °C1012.50 hPa92.00 %3.20 °C 
07:00:004.50 °C1012.50 hPa92.00 %3.30 °C 
06:45:004.70 °C1012.40 hPa92.00 %3.50 °C 
06:30:005.00 °C1012.50 hPa92.00 %3.80 °C 
06:15:005.20 °C1012.60 hPa92.00 %5.40 km/hOSO4.20 °C4.00 °C 
06:00:005.30 °C1012.50 hPa92.00 %4.10 °C 
05:45:005.40 °C1012.50 hPa92.00 %4.20 °C 
05:30:005.60 °C1012.50 hPa92.00 %4.40 °C 
05:15:005.80 °C1012.60 hPa91.00 %4.40 °C 
05:00:005.90 °C1012.50 hPa91.00 %4.50 °C 
04:45:006.20 °C1012.40 hPa91.00 %4.80 °C 
04:30:006.30 °C1012.40 hPa91.00 %4.90 °C 
04:15:006.50 °C1012.50 hPa91.00 %5.10 °C 
04:00:006.60 °C1012.40 hPa91.00 %5.20 °C 
03:45:006.80 °C1012.40 hPa91.00 %5.40 °C 
03:30:007.00 °C1012.40 hPa90.00 %5.50 °C 
03:15:007.40 °C1012.50 hPa90.00 %5.90 °C 
03:00:007.80 °C1012.70 hPa91.00 %6.40 °C 
02:45:008.10 °C1012.40 hPa90.00 %6.60 °C 
02:30:008.50 °C1012.50 hPa90.00 %7.00 °C 
02:15:008.80 °C1012.50 hPa90.00 %7.30 °C 
02:00:008.50 °C1012.40 hPa90.00 %7.00 °C 
01:45:008.40 °C1012.20 hPa90.00 %6.90 °C 
01:30:008.20 °C1012.20 hPa90.00 %6.70 °C 
01:15:007.90 °C1012.20 hPa89.00 %6.20 °C 
01:00:007.90 °C1012.20 hPa89.00 %6.20 °C 
00:45:008.10 °C1012.00 hPa88.00 %6.20 °C 
00:30:008.20 °C1011.90 hPa88.00 %6.30 °C 
00:15:008.30 °C1011.90 hPa88.00 %6.40 °C 
00:00:008.20 °C1012.10 hPa88.00 %6.30 °C 

Permanenter Link zu dieser Seite: Wetter im Erzgebirge am 04.10.2015
Performance-Info: Die Erstellung der Seite / Statistik(en) / Tabelle(n) erforderte 5 Datenbankserver-Abfrage(n) und dauerte 102 Millisekunden. (Dieser Messwert ist von der Gesamt-Auslastung des Servers abhängig.)
Erzgebirge - Wetter | Erzgebirge - Wetter (Mobilgeräte) | Komplette Klimadatenbank